createdAt,value
2022-08-24T00:00:40.812Z,101983.41
2022-08-24T00:05:42.402Z,101994.66
2022-08-24T00:10:44.184Z,101993.25
2022-08-24T00:15:46.601Z,101999.59
2022-08-24T00:20:48.539Z,101996.84
2022-08-24T00:25:51.942Z,102003.06
2022-08-24T00:30:53.731Z,102007.56
2022-08-24T00:35:55.329Z,102007.53
2022-08-24T00:40:57.141Z,102002.13
2022-08-24T00:46:15.828Z,102003.53
2022-08-24T00:51:27.648Z,102016.97
2022-08-24T00:56:35.980Z,102008.06
2022-08-24T01:01:38.624Z,102002.31
2022-08-24T01:06:40.240Z,101998.03
2022-08-24T01:11:42.303Z,102023.06
2022-08-24T01:17:22.282Z,102021.69
2022-08-24T01:22:48.308Z,102017.69
2022-08-24T01:27:53.531Z,102023.09
2022-08-24T01:33:00.167Z,102026.44
2022-08-24T01:38:06.348Z,102031.91
2022-08-24T01:43:08.322Z,102031.94
2022-08-24T01:48:10.538Z,102031.75
2022-08-24T01:53:15.527Z,102037.75
2022-08-24T01:58:18.612Z,102034.16
2022-08-24T02:03:20.551Z,102041.16
2022-08-24T02:08:30.217Z,102028.38
2022-08-24T02:13:32.774Z,102037.84
2022-08-24T02:18:36.469Z,102047.03
2022-08-24T02:23:41.711Z,102044.47
2022-08-24T02:28:43.651Z,102034.94
2022-08-24T02:33:45.209Z,102045.69
2022-08-24T02:38:46.768Z,102044.78
2022-08-24T02:43:54.254Z,102042.75
2022-08-24T02:49:10.598Z,102041.81
2022-08-24T02:54:18.195Z,102047.38
2022-08-24T02:59:22.443Z,102045.25
2022-08-24T03:04:26.076Z,102054.06
2022-08-24T03:09:28.822Z,102050.44
2022-08-24T03:14:32.439Z,102050.63
2022-08-24T03:19:34.549Z,102048.88
2022-08-24T03:24:36.307Z,102043.63
2022-08-24T03:29:37.926Z,102042.16
2022-08-24T03:34:39.626Z,102037.66
2022-08-24T03:39:42.559Z,102035.34
2022-08-24T03:44:44.491Z,102033.53
2022-08-24T03:49:48.894Z,102032.75
2022-08-24T03:54:50.594Z,102043.31
2022-08-24T03:59:52.328Z,102046.25
2022-08-24T04:04:53.923Z,102058.66
2022-08-24T04:09:55.590Z,102061.06
2022-08-24T04:14:59.270Z,102069.03
2022-08-24T04:20:02.917Z,102077.44
2022-08-24T04:25:10.217Z,102081.16
2022-08-24T04:30:14.607Z,102087.59
2022-08-24T04:35:41.068Z,102090.50
2022-08-24T04:40:44.553Z,102088.75
2022-08-24T04:45:52.622Z,102092.94
2022-08-24T04:50:55.020Z,102095.69
2022-08-24T04:55:57.277Z,102102.84
2022-08-24T05:00:59.195Z,102104.00
2022-08-24T05:06:05.319Z,102109.69
2022-08-24T05:11:08.312Z,102107.69
2022-08-24T05:16:13.872Z,102110.91
2022-08-24T05:21:19.567Z,102108.41
2022-08-24T05:26:27.511Z,102118.19
2022-08-24T05:31:32.357Z,102123.84
2022-08-24T05:36:40.847Z,102134.88
2022-08-24T05:41:47.886Z,102137.94
2022-08-24T05:46:59.054Z,102148.44
2022-08-24T05:52:01.408Z,102138.50
2022-08-24T05:57:05.275Z,102158.38
2022-08-24T06:02:23.929Z,102168.03
2022-08-24T06:07:26.925Z,102172.16
2022-08-24T06:12:33.250Z,102180.03
2022-08-24T06:17:35.295Z,102184.78
2022-08-24T06:22:37.220Z,102195.59
2022-08-24T06:27:40.828Z,102204.28
2022-08-24T06:32:44.173Z,102208.38
2022-08-24T06:37:55.272Z,102208.00
2022-08-24T06:43:05.448Z,102215.56
2022-08-24T06:48:14.751Z,102205.59
2022-08-24T06:53:16.961Z,102163.41
2022-08-24T06:58:19.927Z,102158.56
2022-08-24T07:03:22.539Z,102109.22
2022-08-24T07:08:31.318Z,102080.81
2022-08-24T07:13:33.030Z,102011.06
2022-08-24T07:18:34.932Z,101951.69
2022-08-24T07:23:37.931Z,101894.50
2022-08-24T07:28:44.022Z,101880.97
2022-08-24T07:33:46.625Z,101849.59
2022-08-24T07:38:51.295Z,101861.53
2022-08-24T07:43:53.295Z,101839.28
2022-08-24T07:49:05.046Z,101837.91
2022-08-24T07:54:15.091Z,101839.91
2022-08-24T07:59:18.577Z,101832.78
2022-08-24T08:04:24.237Z,101811.69
2022-08-24T08:09:27.083Z,101805.47
2022-08-24T08:14:29.003Z,101800.34
2022-08-24T08:19:31.005Z,101804.72
2022-08-24T08:25:02.408Z,101786.66
2022-08-24T08:30:24.101Z,101802.84
2022-08-24T08:35:27.173Z,101793.22
2022-08-24T08:40:55.327Z,101784.28
2022-08-24T08:46:08.796Z,101777.34
2022-08-24T08:52:06.384Z,101791.25
2022-08-24T08:57:08.286Z,101781.88
2022-08-24T09:02:52.518Z,101787.59
2022-08-24T09:08:05.856Z,101788.38
2022-08-24T09:13:37.794Z,101793.91
2022-08-24T09:19:31.536Z,101785.94
2022-08-24T09:24:55.029Z,101781.47
2022-08-24T09:30:24.328Z,101791.50
2022-08-24T09:35:45.886Z,101788.41
2022-08-24T09:41:06.242Z,101791.84
2022-08-24T09:46:16.745Z,101793.50
2022-08-24T09:51:43.435Z,101795.91
2022-08-24T09:57:27.654Z,101789.81
2022-08-24T10:02:59.538Z,101785.16
2022-08-24T10:08:06.037Z,101781.56
2022-08-24T10:13:16.042Z,101774.22
2022-08-24T10:18:35.311Z,101770.50
2022-08-24T10:24:13.445Z,101766.34
2022-08-24T10:29:52.347Z,101747.97
2022-08-24T10:35:01.350Z,101748.31
2022-08-24T10:40:31.707Z,101756.72
2022-08-24T10:46:02.196Z,101747.59
2022-08-24T10:51:50.388Z,101751.41
2022-08-24T10:58:00.345Z,101747.94
2022-08-24T11:03:14.113Z,101734.28
2022-08-24T11:08:28.161Z,101744.06
2022-08-24T11:13:30.267Z,101734.50
2022-08-24T11:18:59.991Z,101737.16
2022-08-24T11:24:28.045Z,101736.44
2022-08-24T11:29:49.506Z,101737.72
2022-08-24T11:34:51.442Z,101739.63
2022-08-24T11:39:53.203Z,101732.81
2022-08-24T11:45:07.951Z,101734.44
2022-08-24T11:50:25.354Z,101729.13
2022-08-24T11:55:47.211Z,101731.88
2022-08-24T12:01:05.005Z,101723.94
2022-08-24T12:06:19.020Z,101729.31
2022-08-24T12:11:41.779Z,101724.34
2022-08-24T12:16:57.598Z,101722.25
2022-08-24T12:22:03.631Z,101710.72
2022-08-24T12:27:11.919Z,101708.16
2022-08-24T12:32:21.502Z,101707.06
2022-08-24T12:37:35.196Z,101706.72
2022-08-24T12:42:52.483Z,101712.88
2022-08-24T12:48:13.199Z,101702.44
2022-08-24T12:53:54.747Z,101698.00
2022-08-24T12:59:20.426Z,101706.25
2022-08-24T13:04:28.031Z,101709.28
2022-08-24T13:09:36.337Z,101701.06
2022-08-24T13:14:37.919Z,101690.94
2022-08-24T13:19:45.753Z,101692.88
2022-08-24T13:25:04.625Z,101685.66
2022-08-24T13:30:18.559Z,101688.47
2022-08-24T13:35:30.230Z,101689.78
2022-08-24T13:40:42.973Z,101689.75
2022-08-24T13:45:56.524Z,101680.81
2022-08-24T13:51:20.624Z,101678.91
2022-08-24T13:56:29.732Z,101680.00
2022-08-24T14:01:44.447Z,101678.91
2022-08-24T14:07:23.919Z,101680.22
2022-08-24T14:12:32.043Z,101678.56
2022-08-24T14:17:55.034Z,101671.31
2022-08-24T14:23:17.705Z,101667.59
2022-08-24T14:28:38.024Z,101672.44
2022-08-24T14:34:06.633Z,101666.66
2022-08-24T14:39:24.858Z,101659.28
2022-08-24T14:44:48.019Z,101661.06
2022-08-24T14:50:09.209Z,101651.78
2022-08-24T14:55:26.147Z,101656.31
2022-08-24T15:00:50.582Z,101639.69
2022-08-24T15:06:25.701Z,101638.78
2022-08-24T15:11:29.414Z,101650.59
2022-08-24T15:16:53.264Z,101643.94
2022-08-24T15:22:02.186Z,101638.38
2022-08-24T15:27:44.355Z,101634.69
2022-08-24T15:32:53.398Z,101633.97
2022-08-24T15:37:55.883Z,101620.94
2022-08-24T15:43:03.935Z,101621.38
2022-08-24T15:48:06.111Z,101620.69
2022-08-24T15:53:24.938Z,101617.78
2022-08-24T15:58:36.841Z,101618.41
2022-08-24T16:03:49.968Z,101624.88
2022-08-24T16:09:03.826Z,101621.28
2022-08-24T16:14:11.287Z,101620.25
2022-08-24T16:19:24.711Z,101618.63
2022-08-24T16:24:38.704Z,101617.09
2022-08-24T16:29:41.298Z,101620.41
2022-08-24T16:34:47.525Z,101615.78
2022-08-24T16:39:49.822Z,101612.09
2022-08-24T16:44:52.030Z,101614.44
2022-08-24T16:49:54.497Z,101607.34
2022-08-24T16:54:56.281Z,101611.34
2022-08-24T17:00:00.378Z,101607.34
2022-08-24T17:05:02.333Z,101603.25
2022-08-24T17:10:06.965Z,101614.00
2022-08-24T17:22:09.437Z,101604.31
2022-08-24T17:27:14.470Z,101606.38
2022-08-24T17:32:16.375Z,101605.88
2022-08-24T17:37:18.358Z,101608.53
2022-08-24T17:42:46.977Z,101607.78
2022-08-24T17:47:46.338Z,101618.94
2022-08-24T17:52:48.018Z,101625.84
2022-08-24T17:57:49.550Z,101632.84
2022-08-24T18:02:51.098Z,101631.03
2022-08-24T18:07:54.921Z,101630.06
2022-08-24T18:13:00.625Z,101635.75
2022-08-24T18:18:05.255Z,101638.31
2022-08-24T18:23:11.589Z,101640.69
2022-08-24T18:28:15.576Z,101634.44
2022-08-24T18:33:17.521Z,101639.34
2022-08-24T18:38:19.033Z,101647.25
2022-08-24T18:43:23.695Z,101649.91
2022-08-24T18:48:25.341Z,101663.38
2022-08-24T18:53:27.662Z,101658.13
2022-08-24T18:58:29.407Z,101664.94
2022-08-24T19:03:32.345Z,101669.16
2022-08-24T19:08:33.879Z,101669.56
2022-08-24T19:13:37.476Z,101675.34
2022-08-24T19:18:39.327Z,101670.50
2022-08-24T19:23:41.433Z,101681.59
2022-08-24T19:28:42.928Z,101687.81
2022-08-24T19:33:46.559Z,101679.63
2022-08-24T19:38:51.549Z,101692.34
2022-08-24T19:44:23.302Z,101683.03
2022-08-24T19:49:30.121Z,101693.75
2022-08-24T19:54:38.361Z,101692.59
2022-08-24T20:06:37.446Z,101700.53
2022-08-24T20:11:39.644Z,101700.53
2022-08-24T20:16:42.296Z,101704.50
2022-08-24T20:21:44.074Z,101701.94
2022-08-24T20:26:46.530Z,101703.25
2022-08-24T20:31:50.654Z,101707.47
2022-08-24T20:36:53.740Z,101714.06
2022-08-24T20:41:55.475Z,101714.03
2022-08-24T20:46:57.234Z,101708.97
2022-08-24T20:52:00.379Z,101711.63
2022-08-24T20:57:02.700Z,101716.19
2022-08-24T21:02:04.759Z,101720.75
2022-08-24T21:07:10.433Z,101724.38
2022-08-24T21:12:12.099Z,101721.00
2022-08-24T21:17:13.704Z,101723.69
2022-08-24T21:22:18.081Z,101714.81
2022-08-24T21:27:19.662Z,101717.59
2022-08-24T21:32:39.962Z,101720.34
2022-08-24T21:37:41.580Z,101722.13
2022-08-24T21:42:43.170Z,101727.34
2022-08-24T21:47:44.972Z,101720.41
2022-08-24T21:52:46.903Z,101724.03
2022-08-24T21:57:55.544Z,101720.53
2022-08-24T22:02:57.135Z,101714.53
2022-08-24T22:07:58.744Z,101718.91
2022-08-24T22:13:04.724Z,101707.53
2022-08-24T22:18:06.951Z,101691.50
2022-08-24T22:23:08.534Z,101699.78
2022-08-24T22:28:10.597Z,101701.59
2022-08-24T22:33:15.820Z,101713.13
2022-08-24T22:38:18.593Z,101715.88
2022-08-24T22:43:24.433Z,101722.16
2022-08-24T22:48:26.686Z,101724.78
2022-08-24T22:53:28.444Z,101718.66
2022-08-24T22:58:30.188Z,101734.44
2022-08-24T23:03:31.818Z,101746.69
2022-08-24T23:08:33.454Z,101738.84
2022-08-24T23:13:37.777Z,101749.25
2022-08-24T23:18:58.266Z,101750.97
2022-08-24T23:24:00.262Z,101756.13
2022-08-24T23:29:03.579Z,101757.81
2022-08-24T23:34:07.952Z,101747.34
2022-08-24T23:39:11.023Z,101761.22
2022-08-24T23:44:19.016Z,101757.75
2022-08-24T23:49:23.087Z,101751.53
2022-08-24T23:54:25.261Z,101748.91
2022-08-24T23:59:29.420Z,101738.50
